createdAt,value
2022-08-11T11:18:39.980Z,331.88
2022-08-11T11:19:39.956Z,331.88
2022-08-11T11:20:43.708Z,331.88
2022-08-11T11:21:42.421Z,331.88
2022-08-11T11:22:40.197Z,331.88
2022-08-11T11:23:39.912Z,331.88
2022-08-11T11:24:39.913Z,331.88
2022-08-11T11:25:39.905Z,331.88
2022-08-11T11:26:39.885Z,337.50
2022-08-11T11:27:46.644Z,331.88
2022-08-11T11:28:39.852Z,337.50
2022-08-11T11:29:39.841Z,337.50
2022-08-11T11:30:39.845Z,337.50
2022-08-11T11:31:39.839Z,337.50
2022-08-11T11:32:40.026Z,337.50
2022-08-11T11:34:06.868Z,337.50
2022-08-11T11:34:48.013Z,343.13
2022-08-11T11:35:39.803Z,343.13
2022-08-11T11:36:39.772Z,343.13
2022-08-11T11:37:39.761Z,343.13
2022-08-11T11:38:39.767Z,343.13
2022-08-11T11:39:39.889Z,348.75
2022-08-11T11:40:39.754Z,348.75
2022-08-11T11:41:39.725Z,348.75
2022-08-11T11:42:40.030Z,348.75
2022-08-11T11:43:39.701Z,348.75
2022-08-11T11:44:39.713Z,348.75
2022-08-11T11:45:39.691Z,348.75
2022-08-11T11:46:39.685Z,348.75
2022-08-11T11:47:39.671Z,348.75
2022-08-11T11:48:39.654Z,354.38
2022-08-11T11:49:39.643Z,348.75
2022-08-11T11:50:39.655Z,348.75
2022-08-11T11:51:39.622Z,348.75
2022-08-11T11:52:39.883Z,348.75
2022-08-11T11:53:39.604Z,348.75
2022-08-11T11:54:39.598Z,354.38
2022-08-11T11:55:39.600Z,354.38
2022-08-11T11:56:39.580Z,354.38
2022-08-11T11:57:39.766Z,354.38
2022-08-11T11:58:39.558Z,360.00
2022-08-11T11:59:39.550Z,360.00
2022-08-11T12:00:43.316Z,360.00
2022-08-11T12:01:39.540Z,360.00
2022-08-11T12:02:39.522Z,360.00
2022-08-11T12:03:39.587Z,365.63
2022-08-11T12:04:39.504Z,365.63
2022-08-11T12:05:39.514Z,365.63
2022-08-11T12:06:39.484Z,365.63
2022-08-11T12:07:39.657Z,365.63
2022-08-11T12:08:39.468Z,365.63
2022-08-11T12:09:39.484Z,365.63
2022-08-11T12:10:39.459Z,365.63
2022-08-11T12:11:39.449Z,371.25
2022-08-11T12:12:39.438Z,365.63
2022-08-11T12:13:39.426Z,365.63
2022-08-11T12:14:39.412Z,371.25
2022-08-11T12:16:32.241Z,371.25
2022-08-11T12:16:39.395Z,371.25
2022-08-11T12:17:39.463Z,371.25
2022-08-11T12:18:39.383Z,371.25
2022-08-11T12:19:39.405Z,376.88
2022-08-11T12:20:39.368Z,376.88
2022-08-11T12:21:39.344Z,376.88
2022-08-11T12:22:39.340Z,382.50
2022-08-11T12:23:39.328Z,376.88
2022-08-11T12:24:39.330Z,376.88
2022-08-11T12:25:39.321Z,382.50
2022-08-11T12:26:39.302Z,376.88
2022-08-11T12:27:39.483Z,376.88
2022-08-11T12:28:39.297Z,382.50
2022-08-11T12:29:41.399Z,382.50
2022-08-11T12:30:39.354Z,382.50
2022-08-11T12:31:39.261Z,382.50
2022-08-11T12:32:39.367Z,382.50
2022-08-11T12:33:39.570Z,388.13
2022-08-11T12:34:39.281Z,388.13
2022-08-11T12:35:39.243Z,388.13
2022-08-11T12:36:39.226Z,388.13
2022-08-11T12:37:39.359Z,393.75
2022-08-11T12:38:39.205Z,393.75
2022-08-11T12:40:16.436Z,393.75
2022-08-11T12:41:11.838Z,405.00
2022-08-11T12:41:39.215Z,399.38
2022-08-11T12:42:39.170Z,399.38
2022-08-11T12:43:39.746Z,399.38
2022-08-11T12:44:39.146Z,399.38
2022-08-11T12:45:39.157Z,399.38
2022-08-11T12:46:39.160Z,405.00
2022-08-11T12:47:39.218Z,405.00
2022-08-11T12:49:00.971Z,405.00
2022-08-11T12:49:43.361Z,405.00
2022-08-11T12:50:39.119Z,405.00
2022-08-11T12:52:11.726Z,410.63
2022-08-11T12:52:46.680Z,410.63
2022-08-11T12:53:39.082Z,410.63
2022-08-11T12:54:39.171Z,410.63
2022-08-11T12:55:39.077Z,416.25
2022-08-11T12:56:39.064Z,416.25
2022-08-11T12:57:39.152Z,416.25
2022-08-11T12:58:39.084Z,416.25
2022-08-11T12:59:39.023Z,416.25
2022-08-11T13:00:39.122Z,416.25
2022-08-11T13:01:39.004Z,421.88
2022-08-11T13:02:43.902Z,421.88
2022-08-11T13:03:38.989Z,421.88
2022-08-11T13:04:39.014Z,427.50
2022-08-11T13:05:44.517Z,427.50
2022-08-11T13:06:38.967Z,427.50
2022-08-11T13:07:50.622Z,433.13
2022-08-11T13:08:38.969Z,433.13
2022-08-11T13:09:38.947Z,444.38
2022-08-11T13:10:38.958Z,444.38
2022-08-11T13:11:55.967Z,461.25
2022-08-11T13:12:39.124Z,483.75
2022-08-11T13:13:54.867Z,523.13
2022-08-11T13:14:38.935Z,562.50
2022-08-11T13:15:38.924Z,630.00
2022-08-11T13:16:38.889Z,1046.25
2022-08-11T13:17:43.647Z,2520.00
2022-08-11T13:18:38.882Z,3296.25
2022-08-11T13:19:38.882Z,3172.50
2022-08-11T13:20:38.878Z,3031.88
2022-08-11T13:21:38.879Z,2930.63
2022-08-11T13:22:39.172Z,3026.25
2022-08-11T13:23:38.856Z,3009.38
2022-08-11T13:24:38.844Z,3065.63
2022-08-11T13:25:38.852Z,3358.13
2022-08-11T13:26:47.829Z,3470.63
2022-08-11T13:27:38.853Z,3189.38
2022-08-11T13:28:38.807Z,3166.88
2022-08-11T13:29:38.810Z,3228.75
2022-08-11T13:30:42.054Z,2947.50
2022-08-11T13:31:38.785Z,3015.00
2022-08-11T13:32:38.931Z,3071.25
2022-08-11T13:33:38.799Z,2986.88
2022-08-11T13:34:38.772Z,2981.25
2022-08-11T13:35:38.773Z,3256.88
2022-08-11T13:36:38.772Z,3105.00
2022-08-11T13:38:18.563Z,3279.38
2022-08-11T13:38:38.750Z,3380.63
2022-08-11T13:39:38.755Z,3037.50
2022-08-11T13:40:55.277Z,3110.63
2022-08-11T13:41:38.729Z,3493.13
2022-08-11T13:42:38.747Z,3453.75
2022-08-11T13:43:38.717Z,3375.00
2022-08-11T13:44:38.713Z,3594.38
2022-08-11T13:45:38.709Z,3375.00
2022-08-11T13:46:38.710Z,3481.88
2022-08-11T13:47:39.555Z,3414.38
2022-08-11T13:48:38.688Z,3189.38
2022-08-11T13:49:39.698Z,3009.38
2022-08-11T13:50:38.681Z,3003.75
2022-08-11T13:51:38.668Z,2733.75
2022-08-11T13:52:38.665Z,2334.38
2022-08-11T13:53:38.651Z,2401.88
2022-08-11T13:54:38.660Z,2446.88
2022-08-11T13:55:51.697Z,2266.88
2022-08-11T13:56:38.642Z,2233.13
2022-08-11T13:58:07.706Z,2165.63
2022-08-11T13:58:39.887Z,1946.25
2022-08-11T13:59:45.292Z,1906.88
2022-08-11T14:00:38.649Z,1940.63
2022-08-11T14:02:23.021Z,2058.75
2022-08-11T14:02:38.654Z,2030.63
2022-08-11T14:04:31.118Z,1878.75
2022-08-11T14:04:38.599Z,1811.25
2022-08-11T14:05:38.599Z,1839.38
2022-08-11T14:06:38.591Z,1918.13
2022-08-11T14:07:38.724Z,1957.50
2022-08-11T14:08:40.215Z,1884.38
2022-08-11T14:09:38.571Z,1833.75
2022-08-11T14:10:38.573Z,1856.25
2022-08-11T14:12:21.481Z,1878.75
2022-08-11T14:12:38.553Z,1963.13
2022-08-11T14:13:42.266Z,2103.75
2022-08-11T14:14:38.545Z,2317.50
2022-08-11T14:15:38.566Z,2463.75
2022-08-11T14:16:38.551Z,2452.50
2022-08-11T14:17:48.978Z,2660.63
2022-08-11T14:18:38.544Z,2728.13
2022-08-11T14:19:38.536Z,2739.38
2022-08-11T14:20:40.805Z,3121.88
2022-08-11T14:21:38.531Z,3330.00
2022-08-11T14:22:38.513Z,3211.88
2022-08-11T14:23:38.517Z,3031.88
2022-08-11T14:24:38.505Z,3093.75
2022-08-11T14:26:00.520Z,3195.00
2022-08-11T14:26:38.514Z,3099.38
2022-08-11T14:28:29.586Z,3026.25
2022-08-11T14:28:44.428Z,2835.00
2022-08-11T14:29:48.622Z,2716.88
2022-08-11T14:30:38.504Z,2913.75
2022-08-11T14:31:38.486Z,3020.63
2022-08-11T14:32:52.883Z,2778.75
2022-08-11T14:33:59.949Z,2750.63
2022-08-11T14:34:38.478Z,2953.13
2022-08-11T14:35:38.473Z,2975.63
2022-08-11T14:36:38.483Z,2975.63
2022-08-11T14:37:38.466Z,2880.00
2022-08-11T14:38:38.455Z,2806.88
2022-08-11T14:39:38.510Z,2818.13
2022-08-11T14:40:38.462Z,2823.75
2022-08-11T14:42:10.547Z,2874.38
2022-08-11T14:42:38.525Z,2930.63
2022-08-11T14:44:12.426Z,2728.13
2022-08-11T14:44:38.447Z,2739.38
2022-08-11T14:45:55.544Z,2722.50
2022-08-11T14:46:38.434Z,2643.75
2022-08-11T14:47:38.568Z,2632.50
2022-08-11T14:48:38.430Z,2688.75
2022-08-11T14:49:50.784Z,2823.75
2022-08-11T14:50:38.436Z,2891.25
2022-08-11T14:51:38.422Z,2908.13
2022-08-11T14:52:38.461Z,2840.63
2022-08-11T14:53:38.420Z,2756.25
2022-08-11T14:54:38.417Z,2750.63
2022-08-11T14:55:38.436Z,2868.75
2022-08-11T14:56:38.415Z,3088.13
2022-08-11T14:57:55.323Z,2863.13
2022-08-11T14:58:38.420Z,2694.38
2022-08-11T14:59:38.419Z,2677.50
2022-08-11T15:00:38.495Z,2835.00
2022-08-11T15:01:38.416Z,2896.88
2022-08-11T15:02:38.404Z,2733.75
2022-08-11T15:03:38.416Z,2700.00
2022-08-11T15:04:38.469Z,2964.38
2022-08-11T15:05:38.430Z,3003.75
2022-08-11T15:06:38.401Z,2829.38
2022-08-11T15:07:38.669Z,2823.75
2022-08-11T15:08:38.407Z,2722.50
2022-08-11T15:09:56.039Z,2688.75
2022-08-11T15:10:38.411Z,2728.13
2022-08-11T15:11:38.399Z,2728.13
2022-08-11T15:12:38.405Z,2733.75
2022-08-11T15:13:38.407Z,2863.13
2022-08-11T15:14:38.405Z,2790.00
2022-08-11T15:15:38.415Z,2795.63
2022-08-11T15:16:38.395Z,2908.13
2022-08-11T15:17:43.206Z,2925.00
2022-08-11T15:18:38.394Z,2705.63
2022-08-11T15:19:40.905Z,2604.38
2022-08-11T15:20:38.412Z,2694.38
2022-08-11T15:21:38.393Z,2598.75
2022-08-11T15:22:38.389Z,2671.88
2022-08-11T15:23:38.390Z,2829.38
2022-08-11T15:24:38.407Z,2677.50
2022-08-11T15:25:38.399Z,2638.13
2022-08-11T15:26:38.387Z,2598.75
2022-08-11T15:27:38.686Z,2587.50
2022-08-11T15:28:38.386Z,2463.75
2022-08-11T15:29:38.386Z,2227.50
2022-08-11T15:30:38.403Z,2379.38
2022-08-11T15:31:38.391Z,2581.88
2022-08-11T15:32:38.412Z,2508.75
2022-08-11T15:33:38.385Z,2446.88
2022-08-11T15:34:38.382Z,2497.50
2022-08-11T15:35:39.633Z,2621.25
2022-08-11T15:36:38.385Z,2542.50
2022-08-11T15:37:38.464Z,2486.25
2022-08-11T15:38:38.386Z,2542.50
2022-08-11T15:39:38.415Z,2452.50
2022-08-11T15:40:38.394Z,2345.63
2022-08-11T15:41:38.378Z,2345.63
2022-08-11T15:42:38.382Z,2368.13
2022-08-11T15:43:38.381Z,2362.50
2022-08-11T15:45:01.703Z,2356.88
2022-08-11T15:45:38.401Z,2328.75
2022-08-11T15:46:38.385Z,2295.00
2022-08-11T15:47:38.461Z,2340.00
2022-08-11T15:48:38.377Z,2351.25
2022-08-11T15:50:11.213Z,2300.63
2022-08-11T15:50:38.389Z,2210.63
2022-08-11T15:51:38.388Z,2188.13
2022-08-11T15:52:38.384Z,2199.38
2022-08-11T15:53:38.386Z,2188.13
2022-08-11T15:54:38.376Z,2176.88
2022-08-11T15:55:38.422Z,2266.88
2022-08-11T15:56:38.386Z,2216.25
2022-08-11T15:57:39.846Z,2154.38
2022-08-11T15:58:38.384Z,2176.88
2022-08-11T15:59:43.136Z,2283.75
2022-08-11T16:00:38.401Z,2289.38
2022-08-11T16:01:38.394Z,2250.00
2022-08-11T16:02:38.384Z,2160.00
2022-08-11T16:04:05.975Z,2261.25
2022-08-11T16:04:38.385Z,2103.75
2022-08-11T16:05:45.500Z,2036.25
2022-08-11T16:06:38.385Z,2154.38
2022-08-11T16:07:40.868Z,2238.75
2022-08-11T16:08:38.376Z,2233.13
2022-08-11T16:09:48.078Z,2143.13
2022-08-11T16:10:38.396Z,1951.88
2022-08-11T16:11:38.388Z,1929.38
2022-08-11T16:12:38.381Z,1963.13
2022-08-11T16:13:38.391Z,2126.25
2022-08-11T16:14:38.377Z,2126.25
2022-08-11T16:15:38.389Z,2160.00
2022-08-11T16:16:38.379Z,2283.75
2022-08-11T16:17:38.526Z,2323.13
2022-08-11T16:18:38.378Z,2126.25
2022-08-11T16:19:38.380Z,2025.00
2022-08-11T16:20:38.399Z,1890.00
2022-08-11T16:21:38.389Z,1923.75
2022-08-11T16:22:38.388Z,1912.50
2022-08-11T16:23:38.381Z,1867.50
2022-08-11T16:26:38.022Z,1845.00
2022-08-11T16:26:38.115Z,1760.63
2022-08-11T16:27:10.439Z,1816.88
2022-08-11T16:27:38.609Z,1670.63
2022-08-11T16:28:38.388Z,1811.25
2022-08-11T16:29:38.379Z,1884.38
2022-08-11T16:30:38.393Z,1935.00
2022-08-11T16:31:38.375Z,1968.75
2022-08-11T16:32:38.374Z,1996.88
2022-08-11T16:33:50.379Z,2058.75
2022-08-11T16:34:38.372Z,1991.25
2022-08-11T16:35:38.392Z,1912.50
2022-08-11T16:36:38.378Z,1884.38
2022-08-11T16:37:38.612Z,1946.25
2022-08-11T16:38:38.370Z,1968.75
2022-08-11T16:39:38.422Z,1833.75
2022-08-11T16:40:38.392Z,1794.38
2022-08-11T16:41:38.379Z,1873.13
2022-08-11T16:43:04.584Z,1800.00
2022-08-11T16:43:38.373Z,1704.38
2022-08-11T16:44:38.558Z,1704.38
2022-08-11T16:45:38.380Z,1620.00
2022-08-11T16:46:38.365Z,1642.50
2022-08-11T16:48:02.070Z,1715.63
2022-08-11T16:48:39.147Z,1738.13
2022-08-11T16:49:38.375Z,1743.75
2022-08-11T16:50:38.383Z,1681.88
2022-08-11T16:51:38.361Z,1687.50
2022-08-11T16:52:38.372Z,1625.63
2022-08-11T16:53:59.664Z,1468.13
2022-08-11T16:54:38.358Z,1248.75
2022-08-11T16:55:41.841Z,1203.75
2022-08-11T16:56:38.385Z,1333.13
2022-08-11T16:57:38.531Z,1395.00
2022-08-11T16:58:38.363Z,1383.75
2022-08-11T16:59:38.362Z,1237.50
2022-08-11T17:00:38.433Z,1350.00
2022-08-11T17:01:38.352Z,1327.50
2022-08-11T17:02:38.359Z,1198.13
2022-08-11T17:03:38.359Z,1316.25
2022-08-11T17:04:38.372Z,1141.88
2022-08-11T17:05:53.832Z,781.88
2022-08-11T17:06:38.338Z,748.13
2022-08-11T17:07:41.988Z,765.00
2022-08-11T17:08:38.337Z,731.25
2022-08-11T17:09:38.334Z,545.63
2022-08-11T17:10:53.688Z,500.63
2022-08-11T17:11:38.323Z,658.13
2022-08-11T17:12:38.314Z,630.00
2022-08-11T17:13:38.312Z,658.13
2022-08-11T17:14:38.305Z,663.75
2022-08-11T17:15:38.305Z,534.38
2022-08-11T17:16:38.297Z,489.38
2022-08-11T17:17:38.449Z,489.38
2022-08-11T17:18:38.292Z,466.88
2022-08-11T17:20:41.762Z,433.13
2022-08-11T17:20:43.965Z,433.13
2022-08-11T17:21:38.277Z,438.75
2022-08-11T17:22:38.260Z,416.25
2022-08-11T17:29:05.072Z,365.63
